Timeline UpdatesTrip UpdatesNews PostsPvt PostsTravel TipsAdmin PostsConv PostsFollowed PostsChat RequestsBlog PostsPNR Posts

Disclaimer
Search
 
 
Thu Sep 18, 2014 09:09:33 ISTHomeTrainsΣChainsAtlasPNRForumGalleryNewsFAQTripsMembersLoginFeedback
No Recent News for this Train
Other Trains in the News **new
Latest...
Runs combined with 11015 Kushinagar Express from Bhopal
Sun Nov 24, 2013 (02:42PM)
⇐ Return Journey: n/a

11015-Slip⇒59386-Slip2/Panchvalley Passenger Slip2

Time-Table HAS CHANGED.
Sep 05 (3:49AM)
Change Departure Station:
Change Arrival Station:
Post a Train Travel TipPost a Train Travel Tip **new
Post a Comment/Question/Picture/VideoPost a Comment/Question/Picture/Video
Pantry/Catering
???
RSA - Rake Sharing
11015 kushinagar express.
Rake/Coach Composition
Sleeper-1 (S-15)
Loco
WDM 3A
News    PNR    Forum    Time-Table    Availability    Fare Chart    Map    Arr/Dep History    Trips    Gallery    ΣChains    X/O    Timeline    
Travel Time: 23h 0m    48 halts    Distance: 865 km    Avg Speed: 37 km/hr
Type: Passenger
Zone: SECR/South East Central
Departs @ 08:10
Platform# ???
 MT  FS
Bhopal HabibGanj/HBJ 
Arrives @ 07:10 +1 night
Platform# ???
S TW  S
Gorakhpur Junction/GKP 

48 halts. 50 intermediate Stations between Bhopal HabibGanj and Gorakhpur Junction

Show ALL intermediate Stations  Show Old Time-Table

#CodeStation NameX/OArrivesAvgDepartsAvgHaltPFDay#KmSpeedElevZoneAddress
1CWAChhindwara Junction (3)  -21:05---1-331.038675mSECRNH 69A Seoni Road, Madhya Pradesh
2GNWGangiwara (1)  21:26-21:27-1m--1-317.723714mCRChhindwara, Madhya Pradesh
3KUXKhirsadoh Junction (2)  21:47-21:48-1m--1-310.175769mCRChhindwara, Madhya Pradesh
4PUXParasia (2)  21:54-21:56-2m--1-302.638775mCRDongar Parasia, Madhya Pradesh
5IKRIklehra (1)  22:06-22:07-1m11-296.330771mCRDongar Parasia, Madhya Pradesh
6PCLIPalachauri (1)  22:16-22:17-1m11-291.944787mCRDongar Parasia, Madhya Pradesh
7JNOJunnor Deo (2)  22:28-22:29-1m--1-283.843762mCRDongar Parasia, Madhya Pradesh
8HRGHirdagarh (2)  22:43-22:44-1m--1-273.741721mCRDongar Parasia, Madhya Pradesh
9MKDNMorkadhana (1)  22:52-22:53-1m11-268.251747mCRNayagaon, Madhya Pradesh
10NVGNavegaon (1)  23:04-23:05-1m11-258.844794mCRNayagaon, Madhya Pradesh
11BQMBarelipur (1)  23:14-23:15-1m11-252.262744mCRNayagaon, Madhya Pradesh
12BXYBordhal (1)  23:24-23:25-1m11-242.956710mCRAmla, Madhya Pradesh
13BCRDBarchi Road (1)  23:32-23:33-1m11-236.450713mCRState Highway 26, Madhya Pradesh
14JMVJambara (1)  23:41-23:42-1m11-229.719706mCRAmla, Madhya Pradesh
15AMLAAmla Junction (5)XO  00:25-00:40-15m--2-216.165733mCRAmla Distt. Betul, Madhya Pradesh
16BYSBarsali (2)  00:49-00:50-1m--2-206.345699mCRAmla, Madhya Pradesh
17MALKMalkapur Road (1)XO  00:59-01:00-1m12-199.643668mCRBetul, Madhya Pradesh
18BZUBetul (3)XO  01:09-01:10-1m--2-193.237644mCRBetul, Madhya Pradesh
19MJYMaramjhiri (2)XO  01:23-01:24-1m--2-185.152642mCRBetul, Madhya Pradesh
20GDYAGhoradongri (3)X  01:56-01:57-1m--2-157.258 CRBetul, Madhya Pradesh
21BBTRBarbatpur (3)X  02:09-02:10-1m--2-145.635394mCRBetul, Madhya Pradesh
22DOHDhodramohar (2)X  02:29-02:30-1m--2-134.630376mCRBetul, Madhya Pradesh
23KQEKala Akhar (2)X  02:59-03:00-1m--2-119.949376mCRItarsi, Madhya Pradesh
24SAHLSaheli (2) new halt!!X  03:08-03:10-2m--2-113.48388mCRItarsi, Madhya Pradesh
25TAKUTaku (2)XO  03:39-03:40-1m--2-109.318390mCRItarsi, Madhya Pradesh
26KRTHKiratgarh (2)XO  04:19-04:20-1m--2-97.69369mCRItarsi, Madhya Pradesh
27ETItarsi Junction (7)XO  05:35-05:45 12:00-10 385m--2-86.955329mWCRItarsi 461111, Madhya Pradesh
28BHSVidisha (3)XO  14:39-14:40-1m1258.416 WCRVidisha, Madhya Pradesh
29BAQGanj Basoda (4)  15:09-15:10-1m1299.030 WCRVidisha, Madhya Pradesh
30BINABina Junction (5)  16:40-16:45-5m22144.820414mWCRJn Pt - KATNI/GUNA/ BPL/JHS, Madhya Pradesh
31LARLalitpur (3)  17:38-17:39-1m32207.088373mNCRLalitpur, Uttar Pradesh
32BABBabina (3)  18:23-18:24-1m22271.827285mNCRBabina, Uttar Pradesh
33JHSJhansi Junction (7)  19:05-19:20 19:30-15 25m--2297.726259mNCRJhansi, Uttar Pradesh
34CGNChirgaon  19:54-19:55-1m--2329.927192mNCRChirgaon, Uttar Pradesh
35AITAit Junction (2)  20:40-20:41-1m--2387.631154mNCROrai(05162-252206), Uttar Pradesh
36ORAIOrai (3)  21:09-21:10-1m--2411.033139mNCROrai(05162-252206), Uttar Pradesh
37KPIKalpi  21:44-21:45-1m--2444.033114mNCRKalpi Orai(05162-252206), Uttar Pradesh
38PHNPokhrayan (2)  22:04-22:05-1m--2458.032133mNCRPukhrayan, Uttar Pradesh
39BZMBhimsen (1)  23:36-23:37-1m--2503.026136mNCRKanpur, Uttar Pradesh
40CNBKanpur Central (10)  00:10-00:20-10m73517.131128mNCRKANPUR-208 001, Uttar Pradesh
41ONUnnao Junction (5)  00:42-00:43-1m--3534.053129mNRUnnao, Uttar Pradesh
42LKOLucknow Charbagh NR (9)  01:45-01:55-10m63588.631123mNR226004, Uttar Pradesh
43BBKBarabanki Junction (4)  02:38-02:40-2m--3624.031122mNRPin-225001, Uttar Pradesh
44GDGonda Junction (3)  04:05-04:10-5m--3713.034110mNERGonda 271001, Uttar Pradesh
45MURMankapur Junction (5)  04:38-04:40-2m--3741.034104mNERDistrict Gonda, Uttar Pradesh
46BVBabhnan (2)  05:04-05:05-1m--3771.035101mNERDistrict- Basti, Uttar Pradesh
47BSTBasti (4)X  05:35-05:40-5m--3802.07790mNERBasti 272001, Uttar Pradesh
48KLDKhalilabad (3)X  06:03-06:04-1m--3831.53186mNERKhalilabad- 272175, Uttar Pradesh
49GKPGorakhpur Junction (10)•  07:10----3865.4-84mNERGorakhpur 273001, Uttar Pradesh
Scroll to Top
Scroll to Bottom